Time;durP1;ratioP1;P1;durP2;ratioP2;P2;SDS_P1;SDS_P2;PMS_P1;PMS_P2;Temp;Humidity;BMP_temperature;BMP_pressure;BME280_temperature;BME280_humidity;BME280_pressure;Samples;Min_cycle;Max_cycle;Signal;HPM_P1;HPM_P2
2021/03/03 00:02:11;;;;;;;27.67;17.33;;;3.00;88.90;;;;;;6150379;28;20078;-76
2021/03/03 00:05:14;;;;;;;21.97;14.83;;;2.90;89.30;;;;;;6149676;28;20125;-77
2021/03/03 00:08:16;;;;;;;27.17;15.60;;;2.80;89.00;;;;;;6149800;28;20055;-76
2021/03/03 00:11:17;;;;;;;25.40;16.70;;;2.80;89.40;;;;;;6150213;28;20063;-76
2021/03/03 00:14:18;;;;;;;22.77;16.93;;;2.70;89.70;;;;;;6150221;28;20067;-76
2021/03/03 00:17:20;;;;;;;25.47;16.27;;;2.70;89.90;;;;;;6162745;23;20120;-80
2021/03/03 00:20:21;;;;;;;23.40;16.27;;;2.60;90.00;;;;;;6133633;29;20048;-79
2021/03/03 00:23:23;;;;;;;28.00;15.33;;;2.60;90.00;;;;;;6133699;29;20083;-79
2021/03/03 00:26:28;;;;;;;25.60;15.57;;;2.60;90.20;;;;;;6134225;29;20058;-79
2021/03/03 00:29:29;;;;;;;24.30;15.70;;;2.50;90.20;;;;;;6157428;28;20134;-79
2021/03/03 00:32:31;;;;;;;27.00;18.13;;;2.50;90.40;;;;;;6156461;28;20090;-78
2021/03/03 00:35:32;;;;;;;26.70;17.53;;;2.50;90.40;;;;;;6152972;28;20067;-80
2021/03/03 00:38:35;;;;;;;26.63;13.77;;;2.50;90.40;;;;;;6135083;29;20043;-77
2021/03/03 00:41:36;;;;;;;25.57;14.57;;;2.50;90.50;;;;;;6134713;28;20059;-79
2021/03/03 00:44:37;;;;;;;25.90;13.27;;;2.40;90.40;;;;;;6145764;28;20071;-79
2021/03/03 00:47:38;;;;;;;19.67;13.20;;;2.40;90.60;;;;;;6158109;28;20077;-80
2021/03/03 00:50:40;;;;;;;25.93;14.80;;;2.30;90.60;;;;;;6157310;29;20134;-79
2021/03/03 00:53:44;;;;;;;22.17;14.17;;;2.30;90.60;;;;;;6156205;28;20051;-80
2021/03/03 00:56:45;;;;;;;23.70;14.33;;;2.20;90.70;;;;;;6155944;28;20070;-80
2021/03/03 00:59:47;;;;;;;25.17;15.83;;;2.30;90.80;;;;;;6156137;28;20049;-80
2021/03/03 01:02:48;;;;;;;23.77;13.77;;;2.20;90.70;;;;;;6157718;29;20055;-79
2021/03/03 01:05:49;;;;;;;19.20;12.63;;;2.20;90.80;;;;;;6156299;28;20152;-78
2021/03/03 01:08:52;;;;;;;29.07;15.13;;;2.20;90.80;;;;;;6157112;28;20513;-79
2021/03/03 01:11:53;;;;;;;22.80;14.23;;;2.20;90.80;;;;;;6159377;28;20051;-79
2021/03/03 01:14:54;;;;;;;29.97;16.30;;;2.10;90.70;;;;;;6160560;29;20070;-78
2021/03/03 01:18:00;;;;;;;19.37;13.23;;;2.10;91.00;;;;;;6158636;28;20047;-79
2021/03/03 01:21:02;;;;;;;24.37;13.80;;;2.10;91.00;;;;;;6159799;28;20089;-79
2021/03/03 01:24:05;;;;;;;19.47;14.00;;;2.10;91.00;;;;;;6162341;28;20043;-78
2021/03/03 01:27:06;;;;;;;24.57;14.87;;;2.10;91.20;;;;;;6157795;28;20465;-79
2021/03/03 01:33:31;;;;;;;18.47;12.20;;;2.00;91.30;;;;;;6160317;28;20043;-77
2021/03/03 01:36:32;;;;;;;18.27;12.27;;;2.00;91.10;;;;;;6158414;28;20075;-80
2021/03/03 01:39:34;;;;;;;20.07;12.43;;;2.00;91.20;;;;;;6157791;28;20501;-79
2021/03/03 01:42:35;;;;;;;18.27;12.47;;;2.10;91.10;;;;;;6158881;29;20085;-80
2021/03/03 01:45:37;;;;;;;21.67;13.07;;;2.00;91.10;;;;;;6157408;28;20051;-81
2021/03/03 01:48:38;;;;;;;26.43;12.77;;;2.00;91.00;;;;;;6157897;28;20071;-79
2021/03/03 01:51:40;;;;;;;17.33;12.67;;;2.10;91.00;;;;;;6161145;28;20070;-78
2021/03/03 01:54:43;;;;;;;24.00;12.90;;;2.10;91.10;;;;;;6159689;28;20061;-81
2021/03/03 01:57:45;;;;;;;22.30;13.03;;;2.10;91.00;;;;;;6159905;28;20051;-81
2021/03/03 02:00:46;;;;;;;19.40;13.93;;;2.00;91.00;;;;;;6159142;28;20054;-80
2021/03/03 02:03:48;;;;;;;20.20;13.77;;;2.00;91.00;;;;;;6158494;28;20043;-81
2021/03/03 02:06:56;;;;;;;20.00;12.47;;;2.00;91.10;;;;;;6158699;29;20047;-81
2021/03/03 02:10:05;;;;;;;23.53;14.40;;;2.00;91.10;;;;;;6158977;28;20070;-81
2021/03/03 02:13:11;;;;;;;21.20;15.20;;;1.90;91.00;;;;;;6158634;28;20078;-81
2021/03/03 02:16:14;;;;;;;22.77;14.93;;;1.90;91.10;;;;;;6158186;28;20043;-82
2021/03/03 02:19:20;;;;;;;18.17;12.90;;;1.90;91.40;;;;;;6158801;28;20057;-78
2021/03/03 02:22:28;;;;;;;24.10;15.40;;;1.90;91.30;;;;;;6158351;28;20059;-80
2021/03/03 02:25:32;;;;;;;22.83;14.90;;;1.80;91.40;;;;;;6158138;28;20043;-79
2021/03/03 02:28:35;;;;;;;21.50;13.77;;;1.80;91.50;;;;;;6158198;28;20055;-80
2021/03/03 02:31:39;;;;;;;20.67;14.77;;;1.80;91.40;;;;;;6158168;28;20043;-81
2021/03/03 02:34:41;;;;;;;23.67;14.33;;;1.80;91.80;;;;;;6159611;29;20111;-80
2021/03/03 02:37:43;;;;;;;22.87;15.57;;;1.80;92.00;;;;;;6157953;28;20051;-80
2021/03/03 02:40:46;;;;;;;22.93;15.33;;;1.80;91.70;;;;;;6167960;28;20047;-81
2021/03/03 02:43:48;;;;;;;20.30;13.80;;;1.80;91.90;;;;;;6165915;28;20043;-80
2021/03/03 02:46:49;;;;;;;18.57;13.37;;;1.70;91.90;;;;;;6158169;29;20142;-77
2021/03/03 02:49:51;;;;;;;19.50;13.50;;;1.70;91.90;;;;;;6156693;28;20078;-80
2021/03/03 02:52:54;;;;;;;21.03;11.97;;;1.60;92.00;;;;;;6157147;28;20124;-80
2021/03/03 02:55:56;;;;;;;24.33;13.33;;;1.60;92.00;;;;;;6157441;28;20058;-80
2021/03/03 02:59:02;;;;;;;19.10;12.70;;;1.60;92.10;;;;;;6159413;29;20055;-81
2021/03/03 03:02:05;;;;;;;26.03;15.57;;;1.60;92.20;;;;;;6159581;28;20043;-78
2021/03/03 03:05:08;;;;;;;24.10;12.33;;;1.60;92.20;;;;;;6179072;28;20071;-78
2021/03/03 03:08:13;;;;;;;19.17;12.37;;;1.70;92.20;;;;;;6173055;28;20468;-81
2021/03/03 03:11:21;;;;;;;18.77;12.77;;;1.60;92.20;;;;;;6157730;28;20057;-80
2021/03/03 03:14:27;;;;;;;18.90;13.43;;;1.60;92.10;;;;;;6158846;29;20055;-80
2021/03/03 03:17:29;;;;;;;20.70;13.33;;;1.70;92.20;;;;;;6156968;28;20051;-80
2021/03/03 03:20:34;;;;;;;16.40;12.73;;;1.60;92.30;;;;;;6158447;28;20047;-80
2021/03/03 03:23:36;;;;;;;18.23;12.50;;;1.60;92.40;;;;;;6156047;28;20162;-80
2021/03/03 03:26:41;;;;;;;15.67;12.33;;;1.70;92.50;;;;;;6161026;29;20420;-81
2021/03/03 03:29:45;;;;;;;17.77;12.83;;;1.70;92.30;;;;;;6161742;28;20062;-81
2021/03/03 03:32:47;;;;;;;22.17;14.07;;;1.70;92.40;;;;;;6162459;28;20075;-81
2021/03/03 03:35:49;;;;;;;17.77;13.13;;;1.60;92.40;;;;;;6160944;28;20043;-80
2021/03/03 03:38:50;;;;;;;25.07;15.73;;;1.70;92.50;;;;;;6163159;29;20052;-81
2021/03/03 03:41:52;;;;;;;24.20;12.10;;;1.60;92.50;;;;;;6162005;28;20070;-82
2021/03/03 03:44:55;;;;;;;24.10;15.50;;;1.60;92.40;;;;;;6163017;28;20134;-81
2021/03/03 03:47:57;;;;;;;19.20;13.40;;;1.60;92.30;;;;;;6162353;28;20043;-81
2021/03/03 03:50:58;;;;;;;20.03;12.87;;;1.70;92.40;;;;;;6166456;29;20066;-79
2021/03/03 03:54:01;;;;;;;19.67;12.53;;;1.80;92.60;;;;;;6171622;28;20063;-80
2021/03/03 03:57:03;;;;;;;16.93;13.73;;;1.80;92.50;;;;;;6159051;28;20047;-80
2021/03/03 04:00:06;;;;;;;18.73;13.30;;;1.80;92.50;;;;;;6156349;28;20058;-80
2021/03/03 04:03:07;;;;;;;17.00;12.03;;;1.70;92.60;;;;;;6156531;28;20055;-80
2021/03/03 04:06:09;;;;;;;17.23;12.73;;;1.80;92.60;;;;;;6155256;29;20047;-81
2021/03/03 04:09:10;;;;;;;24.43;14.13;;;1.80;92.40;;;;;;6155680;28;20105;-82
2021/03/03 04:12:12;;;;;;;23.77;14.80;;;1.80;92.30;;;;;;6155937;28;20050;-79
2021/03/03 04:15:15;;;;;;;22.27;15.73;;;1.70;92.40;;;;;;6155993;28;20134;-81
2021/03/03 04:18:18;;;;;;;23.77;13.73;;;1.80;92.40;;;;;;6160684;29;20054;-80
2021/03/03 04:21:20;;;;;;;19.97;14.20;;;1.80;92.50;;;;;;6160262;29;20054;-81
2021/03/03 04:24:21;;;;;;;19.90;12.43;;;1.90;92.50;;;;;;6159162;28;20055;-81
2021/03/03 04:27:23;;;;;;;18.87;13.83;;;1.90;92.70;;;;;;6158632;28;20107;-78
2021/03/03 04:30:25;;;;;;;22.33;13.70;;;2.00;92.50;;;;;;6159199;29;20075;-80
2021/03/03 04:33:26;;;;;;;20.53;13.73;;;1.90;92.50;;;;;;6157588;28;20497;-81
2021/03/03 04:36:28;;;;;;;23.03;12.93;;;1.90;92.40;;;;;;6159627;28;20039;-80
2021/03/03 04:39:29;;;;;;;17.27;13.10;;;2.00;92.50;;;;;;6157985;28;20079;-80
2021/03/03 04:42:31;;;;;;;21.70;13.70;;;1.90;92.40;;;;;;6159765;29;20540;-80
2021/03/03 04:45:33;;;;;;;23.63;12.87;;;1.80;92.40;;;;;;6160796;28;20051;-81
2021/03/03 04:48:34;;;;;;;17.17;12.53;;;1.80;92.50;;;;;;6165604;28;20059;-80
2021/03/03 04:51:36;;;;;;;19.77;13.17;;;1.80;92.60;;;;;;6164287;28;20102;-80
2021/03/03 04:54:37;;;;;;;21.87;14.67;;;1.80;92.70;;;;;;6165169;29;20473;-81
2021/03/03 04:57:40;;;;;;;16.47;12.80;;;1.80;92.90;;;;;;6164561;28;20402;-81
2021/03/03 05:00:41;;;;;;;20.73;14.93;;;1.70;92.80;;;;;;6163414;28;20055;-80
2021/03/03 05:03:42;;;;;;;21.53;14.03;;;1.80;92.90;;;;;;6160891;28;20059;-80
2021/03/03 05:06:44;;;;;;;16.03;12.97;;;1.70;93.10;;;;;;6159912;29;20105;-80
2021/03/03 05:09:45;;;;;;;21.57;14.33;;;1.80;93.10;;;;;;6158012;28;20051;-80
2021/03/03 05:12:47;;;;;;;15.63;12.43;;;1.70;93.00;;;;;;6158552;28;20043;-79
2021/03/03 05:15:49;;;;;;;22.30;15.53;;;1.70;93.10;;;;;;6157979;28;20047;-81
2021/03/03 05:18:50;;;;;;;22.03;14.53;;;1.70;93.30;;;;;;6158122;29;20054;-79
2021/03/03 05:21:52;;;;;;;20.63;13.93;;;1.70;93.30;;;;;;6157908;28;20058;-80
2021/03/03 05:24:53;;;;;;;20.23;13.03;;;1.60;93.30;;;;;;6157935;28;20102;-80
2021/03/03 05:27:55;;;;;;;23.07;13.73;;;1.60;93.30;;;;;;6158244;28;20474;-80
2021/03/03 05:30:57;;;;;;;18.33;11.60;;;1.60;93.70;;;;;;6158091;28;20058;-79
2021/03/03 05:33:59;;;;;;;19.17;13.10;;;1.60;93.50;;;;;;6157872;28;20134;-80
2021/03/03 05:37:00;;;;;;;25.10;14.67;;;1.60;93.40;;;;;;6159429;28;20047;-79
2021/03/03 05:40:01;;;;;;;19.57;13.83;;;1.60;93.40;;;;;;6159384;28;20061;-79
2021/03/03 05:43:04;;;;;;;21.97;13.77;;;1.60;93.60;;;;;;6159081;29;20417;-78
2021/03/03 05:46:06;;;;;;;18.80;12.33;;;1.70;93.50;;;;;;6159739;29;20098;-78
2021/03/03 05:49:14;;;;;;;22.00;16.90;;;1.70;93.30;;;;;;6158376;28;20085;-78
2021/03/03 05:52:18;;;;;;;24.33;12.52;;;1.70;93.30;;;;;;6148609;28;20112;-79
2021/03/03 05:55:19;;;;;;;26.47;13.10;;;1.70;93.30;;;;;;6134201;29;20078;-79
2021/03/03 05:58:23;;;;;;;22.93;16.10;;;1.70;93.30;;;;;;6132245;29;20509;-79
2021/03/03 06:01:25;;;;;;;18.83;15.23;;;1.70;93.40;;;;;;6133720;28;20513;-79
2021/03/03 06:04:27;;;;;;;25.30;14.23;;;1.70;93.30;;;;;;6134352;28;20047;-79
2021/03/03 06:07:30;;;;;;;24.03;15.77;;;1.70;93.30;;;;;;6137372;28;20051;-79
2021/03/03 06:10:31;;;;;;;26.00;16.80;;;1.80;93.50;;;;;;6158437;29;20059;-79
2021/03/03 06:13:35;;;;;;;26.80;16.27;;;1.80;93.40;;;;;;6137024;28;20047;-79
2021/03/03 06:16:36;;;;;;;27.80;17.23;;;1.80;93.60;;;;;;6142504;29;20039;-79
2021/03/03 06:19:39;;;;;;;31.17;18.93;;;1.80;93.60;;;;;;6149827;28;20051;-78
2021/03/03 06:22:40;;;;;;;38.67;17.90;;;1.80;93.50;;;;;;6135077;29;20052;-78
2021/03/03 06:25:42;;;;;;;25.30;18.00;;;1.90;93.50;;;;;;6151797;28;20106;-78
2021/03/03 06:28:46;;;;;;;29.43;16.37;;;2.00;93.60;;;;;;6153699;28;20051;-78
2021/03/03 06:31:48;;;;;;;30.43;16.50;;;2.00;93.60;;;;;;6149596;28;20058;-78
2021/03/03 06:34:50;;;;;;;26.37;16.07;;;2.00;93.50;;;;;;6131043;29;20142;-78
2021/03/03 06:37:56;;;;;;;24.23;15.80;;;2.00;93.50;;;;;;6130491;28;20557;-79
2021/03/03 06:40:59;;;;;;;23.70;18.33;;;2.10;93.50;;;;;;6146212;28;20074;-78
2021/03/03 06:44:01;;;;;;;33.53;19.43;;;2.10;93.60;;;;;;6155017;28;20043;-78
2021/03/03 06:47:05;;;;;;;28.73;17.93;;;2.10;93.60;;;;;;6157138;29;20497;-78
2021/03/03 06:50:11;;;;;;;27.17;15.77;;;2.20;93.60;;;;;;6133455;29;20130;-78
2021/03/03 06:53:31;;;;;;;31.27;16.27;;;2.20;93.60;;;;;;6132141;29;20460;-78
2021/03/03 06:56:33;;;;;;;27.63;16.80;;;2.20;93.50;;;;;;6139258;28;20071;-79
2021/03/03 06:59:36;;;;;;;29.57;18.27;;;2.30;93.50;;;;;;6143938;28;20102;-78
2021/03/03 07:02:38;;;;;;;25.53;19.90;;;2.30;93.60;;;;;;6139637;29;20051;-77
2021/03/03 07:05:39;;;;;;;26.53;18.83;;;2.40;93.60;;;;;;6127967;28;20055;-78
2021/03/03 07:08:57;;;;;;;26.67;17.53;;;2.50;93.50;;;;;;6133038;28;20058;-78
2021/03/03 07:12:03;;;;;;;24.73;19.07;;;2.70;93.40;;;;;;6140820;28;20658;-78
2021/03/03 07:15:08;;;;;;;24.63;17.07;;;2.80;93.30;;;;;;6154944;28;20142;-77
2021/03/03 07:18:32;;;;;;;23.60;17.20;;;2.80;93.50;;;;;;6155257;29;20155;-77
2021/03/03 07:21:37;;;;;;;32.70;17.60;;;3.00;93.10;;;;;;6155905;28;20055;-78
2021/03/03 07:24:38;;;;;;;21.43;16.80;;;3.00;93.20;;;;;;6155620;28;20078;-78
2021/03/03 07:27:41;;;;;;;32.10;17.67;;;3.10;93.10;;;;;;6154624;28;20074;-77
2021/03/03 07:30:43;;;;;;;31.60;21.10;;;3.20;93.60;;;;;;6154847;28;20051;-77
2021/03/03 07:33:45;;;;;;;26.90;19.53;;;3.40;94.40;;;;;;6152772;28;20054;-77
2021/03/03 07:36:50;;;;;;;28.53;17.30;;;3.50;94.00;;;;;;6153499;28;20101;-78
2021/03/03 07:39:57;;;;;;;28.77;17.53;;;3.70;93.50;;;;;;6152713;28;20098;-78
2021/03/03 07:43:00;;;;;;;31.80;17.93;;;3.70;93.20;;;;;;6154842;29;20058;-78
2021/03/03 07:46:08;;;;;;;25.00;19.10;;;3.90;93.00;;;;;;6153248;28;20500;-78
2021/03/03 07:49:10;;;;;;;;;;;4.00;92.80;;;;;;6156154;28;20059;-78
2021/03/03 07:52:13;;;;;;;24.85;17.23;;;4.10;92.80;;;;;;6155477;28;20370;-78
2021/03/03 07:55:15;;;;;;;26.23;18.10;;;4.30;92.40;;;;;;6157488;28;20474;-79
2021/03/03 07:58:17;;;;;;;41.15;15.90;;;4.40;92.20;;;;;;6156349;28;20051;-79
2021/03/03 08:01:19;;;;;;;29.27;17.70;;;4.50;92.20;;;;;;6158354;28;20091;-78
2021/03/03 08:04:38;;;;;;;19.60;15.48;;;4.70;92.10;;;;;;6158391;28;20552;-78
2021/03/03 08:07:39;;;;;;;;;;;4.90;92.10;;;;;;6157925;28;20063;-78
2021/03/03 08:10:41;;;;;;;21.75;15.82;;;5.00;92.00;;;;;;6157156;29;19929;-79
2021/03/03 08:13:45;;;;;;;26.25;16.23;;;5.10;91.80;;;;;;6155614;28;20532;-79
2021/03/03 08:17:06;;;;;;;19.15;15.45;;;5.30;91.80;;;;;;6155449;28;20047;-79
2021/03/03 08:20:08;;;;;;;27.42;17.83;;;5.40;91.60;;;;;;6153963;28;20131;-79
2021/03/03 08:23:10;;;;;;;23.25;16.75;;;5.50;91.60;;;;;;6152934;28;20528;-79
2021/03/03 08:26:36;;;;;;;22.85;16.38;;;5.70;91.50;;;;;;6153385;29;20577;-79
2021/03/03 08:29:37;;;;;;;25.00;18.00;;;5.90;91.40;;;;;;6144062;28;20051;-78
2021/03/03 08:32:40;;;;;;;24.95;17.55;;;6.00;91.10;;;;;;6154735;28;20051;-79
2021/03/03 08:35:41;;;;;;;23.25;18.38;;;6.10;90.80;;;;;;6153356;28;20062;-78
2021/03/03 08:38:42;;;;;;;33.60;16.40;;;6.30;90.50;;;;;;6151623;28;20044;-78
2021/03/03 08:41:44;;;;;;;26.05;19.70;;;6.40;90.20;;;;;;6151551;28;20055;-77
2021/03/03 08:45:13;;;;;;;25.23;18.27;;;6.60;90.00;;;;;;6158077;28;20516;-80
2021/03/03 08:48:18;;;;;;;25.92;18.73;;;6.80;89.20;;;;;;6160616;28;20123;-80
2021/03/03 08:51:21;;;;;;;23.60;17.30;;;6.90;88.10;;;;;;6158521;28;20079;-79
2021/03/03 08:54:38;;;;;;;29.48;19.45;;;7.00;87.70;;;;;;6158715;29;20057;-79
2021/03/03 08:57:39;;;;;;;25.70;17.38;;;7.10;86.80;;;;;;6159935;28;20039;-80
2021/03/03 09:00:49;;;;;;;25.00;15.82;;;7.30;86.30;;;;;;6159015;28;20172;-79
2021/03/03 09:03:53;;;;;;;25.83;17.08;;;7.50;87.90;;;;;;6159591;28;20047;-79
2021/03/03 09:06:57;;;;;;;22.55;15.55;;;7.90;90.00;;;;;;6158610;29;20051;-79
2021/03/03 09:10:00;;;;;;;21.10;14.57;;;8.30;86.20;;;;;;6158066;28;20119;-78
2021/03/03 09:13:02;;;;;;;21.05;16.02;;;8.40;86.10;;;;;;6150985;28;20465;-79
2021/03/03 09:16:05;;;;;;;15.90;12.57;;;8.40;84.30;;;;;;6155368;28;20088;-79
2021/03/03 09:19:10;;;;;;;19.40;14.55;;;8.70;84.70;;;;;;6155424;28;20040;-79
2021/03/03 09:22:17;;;;;;;23.30;14.15;;;9.10;83.10;;;;;;6154654;29;20055;-79
2021/03/03 09:25:20;;;;;;;22.25;16.75;;;9.50;80.30;;;;;;6154884;28;20713;-78
2021/03/03 09:28:38;;;;;;;28.83;18.20;;;9.60;77.50;;;;;;6150903;28;20425;-78
2021/03/03 09:31:39;;;;;;;29.65;18.35;;;9.50;76.60;;;;;;6153198;28;20514;-78
2021/03/03 09:34:50;;;;;;;22.77;16.30;;;9.30;76.80;;;;;;6154914;29;20496;-78
2021/03/03 09:37:51;;;;;;;23.73;16.40;;;9.30;76.70;;;;;;6154122;28;20540;-78
2021/03/03 09:40:53;;;;;;;22.05;17.67;;;9.20;76.60;;;;;;6154898;28;20078;-77
2021/03/03 09:44:02;;;;;;;29.60;18.05;;;9.30;76.80;;;;;;6154357;28;20054;-79
2021/03/03 09:47:04;;;;;;;24.48;18.35;;;9.40;76.70;;;;;;6153009;28;20474;-78
2021/03/03 09:50:09;;;;;;;25.08;16.90;;;9.50;76.30;;;;;;6149358;28;20054;-78
2021/03/03 09:53:10;;;;;;;35.30;20.00;;;9.60;75.80;;;;;;6132170;28;20134;-78
2021/03/03 09:56:26;;;;;;;26.30;19.17;;;9.70;75.20;;;;;;6135506;28;20055;-79
2021/03/03 09:59:27;;;;;;;26.33;20.30;;;9.80;74.30;;;;;;6137086;28;20054;-77
2021/03/03 10:02:29;;;;;;;29.58;19.85;;;9.80;74.40;;;;;;6179508;29;20100;-77
2021/03/03 10:05:34;;;;;;;23.20;18.80;;;9.90;74.50;;;;;;6184026;28;20572;-79
2021/03/03 10:08:35;;;;;;;41.50;23.85;;;9.90;73.40;;;;;;6183421;28;20083;-81
2021/03/03 10:11:38;;;;;;;34.55;21.45;;;10.00;73.40;;;;;;6182651;28;20035;-78
2021/03/03 10:14:57;;;;;;;27.98;19.13;;;10.10;72.90;;;;;;6171989;29;20043;-80
2021/03/03 10:17:59;;;;;;;32.88;20.52;;;10.20;72.50;;;;;;6171243;28;20030;-80
2021/03/03 10:21:01;;;;;;;29.50;20.25;;;10.30;71.80;;;;;;6174108;28;20031;-79
2021/03/03 10:24:13;;;;;;;34.58;21.02;;;10.40;71.50;;;;;;6145884;28;20469;-76
2021/03/03 10:27:18;;;;;;;26.02;20.25;;;10.60;71.30;;;;;;6152124;28;20190;-76
2021/03/03 10:30:22;;;;;;;27.17;19.88;;;10.70;71.00;;;;;;6145593;29;20497;-77
2021/03/03 10:33:29;;;;;;;27.05;18.10;;;10.90;70.30;;;;;;6140039;28;20057;-78
2021/03/03 10:36:40;;;;;;;33.60;18.80;;;11.20;69.70;;;;;;6137996;28;20088;-78
2021/03/03 10:39:41;;;;;;;24.20;19.13;;;11.50;68.40;;;;;;6153115;28;20043;-77
2021/03/03 10:42:43;;;;;;;27.60;19.17;;;11.60;67.70;;;;;;6148548;28;20204;-77
2021/03/03 10:45:48;;;;;;;27.25;18.95;;;11.80;67.20;;;;;;6131845;28;20084;-76
2021/03/03 10:48:50;;;;;;;26.10;18.33;;;12.10;67.10;;;;;;6129344;29;20067;-76
2021/03/03 10:51:52;;;;;;;31.88;19.50;;;12.30;65.90;;;;;;6124890;28;20055;-78
2021/03/03 10:54:54;;;;;;;24.85;20.50;;;12.50;65.00;;;;;;6121561;29;20055;-78
2021/03/03 10:58:05;;;;;;;31.23;19.02;;;12.60;64.50;;;;;;6140895;28;20170;-77
2021/03/03 11:01:06;;;;;;;29.70;21.38;;;12.80;62.80;;;;;;6127033;28;20051;-77
2021/03/03 11:04:08;;;;;;;23.33;18.17;;;13.00;61.50;;;;;;6119368;29;20063;-77
2021/03/03 11:07:13;;;;;;;32.75;20.67;;;13.10;61.20;;;;;;6122174;28;20482;-78
2021/03/03 11:10:14;;;;;;;29.00;20.33;;;13.20;61.00;;;;;;6113279;29;20550;-77
2021/03/03 11:13:16;;;;;;;25.08;20.40;;;13.20;60.80;;;;;;6121524;28;20103;-77
2021/03/03 11:16:17;;;;;;;32.08;19.90;;;13.30;60.80;;;;;;6129085;29;20055;-78
2021/03/03 11:19:19;;;;;;;34.40;21.50;;;13.50;59.90;;;;;;6142003;28;20047;-77
2021/03/03 11:22:21;;;;;;;25.77;18.48;;;13.70;59.70;;;;;;6138867;29;20058;-77
2021/03/03 11:25:23;;;;;;;31.23;20.88;;;13.80;58.60;;;;;;6123218;28;20062;-77
2021/03/03 11:28:24;;;;;;;27.05;19.45;;;13.90;58.20;;;;;;6118426;28;20056;-77
2021/03/03 11:31:26;;;;;;;30.48;21.02;;;14.00;58.10;;;;;;6119404;28;20073;-78
2021/03/03 11:34:27;;;;;;;31.75;21.63;;;14.10;57.50;;;;;;6151659;28;20134;-77
2021/03/03 11:37:30;;;;;;;29.88;20.27;;;14.20;57.30;;;;;;6147661;28;20051;-78
2021/03/03 11:40:31;;;;;;;33.13;23.08;;;14.30;56.80;;;;;;6137865;28;20074;-77
2021/03/03 11:43:32;;;;;;;25.90;17.83;;;14.40;55.90;;;;;;6144970;28;20079;-77
2021/03/03 11:46:34;;;;;;;27.75;20.73;;;14.30;55.70;;;;;;6139903;28;20083;-77
2021/03/03 11:49:35;;;;;;;26.67;18.92;;;14.30;56.10;;;;;;6138952;28;20394;-77
2021/03/03 11:52:37;;;;;;;32.25;20.55;;;14.40;55.10;;;;;;6140026;28;20047;-77
2021/03/03 11:55:39;;;;;;;23.88;18.25;;;14.40;55.20;;;;;;6141178;28;20048;-78
2021/03/03 11:58:40;;;;;;;32.65;22.08;;;14.30;55.30;;;;;;6140959;29;20047;-78
2021/03/03 12:01:41;;;;;;;33.13;25.23;;;14.20;54.30;;;;;;6142303;28;20163;-78
2021/03/03 12:04:43;;;;;;;28.90;19.90;;;13.90;54.40;;;;;;6132224;28;20058;-77
2021/03/03 12:07:45;;;;;;;34.45;19.77;;;13.80;55.40;;;;;;6116020;29;20091;-78
2021/03/03 12:10:46;;;;;;;29.90;20.00;;;13.80;55.80;;;;;;6120798;29;20133;-77
2021/03/03 12:13:48;;;;;;;29.50;21.10;;;13.90;55.90;;;;;;6116266;28;20130;-78
2021/03/03 12:16:49;;;;;;;30.90;20.20;;;14.00;55.60;;;;;;6122249;28;20071;-78
2021/03/03 12:19:50;;;;;;;24.83;18.00;;;14.10;55.80;;;;;;6131611;28;20047;-79
2021/03/03 12:22:53;;;;;;;25.33;18.45;;;14.20;55.30;;;;;;6154016;29;20407;-78
2021/03/03 12:25:54;;;;;;;28.15;18.52;;;14.50;54.70;;;;;;6150345;28;20043;-78
2021/03/03 12:28:55;;;;;;;31.48;19.10;;;14.60;54.70;;;;;;6143471;28;20130;-77
2021/03/03 12:31:56;;;;;;;22.40;17.30;;;14.60;55.10;;;;;;6137679;28;20099;-77
2021/03/03 12:34:58;;;;;;;22.67;17.50;;;14.90;55.80;;;;;;6119666;29;20052;-77
2021/03/03 12:38:00;;;;;;;29.67;20.65;;;15.20;52.60;;;;;;6120486;28;20051;-78
2021/03/03 12:41:02;;;;;;;29.13;20.05;;;15.10;52.40;;;;;;6122672;29;20052;-78
2021/03/03 12:44:04;;;;;;;29.70;19.40;;;15.00;52.60;;;;;;6118914;29;20051;-78
2021/03/03 12:47:05;;;;;;;22.80;16.60;;;14.90;52.10;;;;;;6129938;28;20533;-78
2021/03/03 12:50:08;;;;;;;28.55;19.75;;;14.90;54.80;;;;;;6136549;29;20124;-79
2021/03/03 12:53:10;;;;;;;28.80;20.25;;;15.00;52.50;;;;;;6150668;28;20494;-78
2021/03/03 12:56:12;;;;;;;28.40;17.83;;;15.00;52.90;;;;;;6138539;28;20163;-78
2021/03/03 12:59:13;;;;;;;27.17;19.88;;;15.00;51.90;;;;;;6126485;28;20138;-78
2021/03/03 13:02:15;;;;;;;27.92;19.67;;;14.90;52.80;;;;;;6123369;29;20498;-78
2021/03/03 13:05:16;;;;;;;36.40;21.77;;;15.10;51.90;;;;;;6144385;28;20055;-78
2021/03/03 13:08:19;;;;;;;27.30;20.58;;;15.00;51.40;;;;;;6131785;28;20056;-77
2021/03/03 13:11:20;;;;;;;35.00;21.10;;;14.90;51.20;;;;;;6127599;29;20133;-78
2021/03/03 13:14:21;;;;;;;30.13;18.40;;;14.80;51.50;;;;;;6128989;29;20052;-78
2021/03/03 13:17:22;;;;;;;32.90;19.27;;;14.80;51.70;;;;;;6126572;29;20039;-77
2021/03/03 13:20:24;;;;;;;32.75;18.77;;;14.90;52.00;;;;;;6136794;28;20064;-78
2021/03/03 13:23:26;;;;;;;34.42;18.35;;;15.00;51.50;;;;;;6131194;28;20097;-78
2021/03/03 13:26:28;;;;;;;32.72;19.73;;;15.10;51.40;;;;;;6155095;29;20052;-78
2021/03/03 13:29:31;;;;;;;28.60;16.33;;;15.20;51.60;;;;;;6148557;28;20047;-78
2021/03/03 13:32:33;;;;;;;35.33;21.13;;;15.40;52.50;;;;;;6133737;28;20055;-79
2021/03/03 13:35:34;;;;;;;38.47;19.70;;;15.60;49.90;;;;;;6130204;29;20039;-78
2021/03/03 13:38:37;;;;;;;27.20;19.55;;;15.50;50.40;;;;;;6149603;28;20466;-78
2021/03/03 13:41:38;;;;;;;34.33;22.75;;;15.30;50.70;;;;;;6115997;28;20138;-77
2021/03/03 13:44:39;;;;;;;33.45;24.70;;;15.30;51.20;;;;;;6133462;29;20052;-78
2021/03/03 13:47:41;;;;;;;34.90;20.67;;;15.30;51.00;;;;;;6127177;28;20524;-78
2021/03/03 13:50:42;;;;;;;37.33;30.40;;;15.30;50.90;;;;;;6121315;29;20052;-78
2021/03/03 13:53:44;;;;;;;27.40;22.30;;;15.10;51.30;;;;;;6146542;28;20058;-78
2021/03/03 13:56:45;;;;;;;29.17;20.92;;;15.00;51.50;;;;;;6146993;28;20154;-78
2021/03/03 13:59:47;;;;;;;28.00;18.80;;;14.90;53.20;;;;;;6142004;28;20505;-78
2021/03/03 14:02:48;;;;;;;28.63;17.50;;;14.80;52.00;;;;;;6152682;29;20077;-78
2021/03/03 14:05:50;;;;;;;32.42;20.85;;;14.60;52.60;;;;;;6124465;28;20139;-78
2021/03/03 14:08:52;;;;;;;24.65;19.50;;;14.50;52.90;;;;;;6130114;28;20075;-77
2021/03/03 14:11:53;;;;;;;29.55;17.05;;;14.40;53.30;;;;;;6128466;28;20114;-78
2021/03/03 14:14:55;;;;;;;26.80;19.35;;;14.40;53.50;;;;;;6122006;29;20055;-78
2021/03/03 14:17:56;;;;;;;25.30;18.23;;;14.30;53.80;;;;;;6139307;28;20048;-78
2021/03/03 14:20:57;;;;;;;23.25;17.77;;;14.30;54.10;;;;;;6121286;28;20052;-78
2021/03/03 14:23:59;;;;;;;24.70;18.00;;;14.30;54.30;;;;;;6123426;28;20131;-78
2021/03/03 14:27:01;;;;;;;30.33;18.48;;;14.30;54.40;;;;;;6115698;29;20056;-78
2021/03/03 14:30:03;;;;;;;28.75;18.67;;;14.40;54.20;;;;;;6120212;28;20100;-78
2021/03/03 14:33:06;;;;;;;27.92;18.40;;;14.50;53.30;;;;;;6138259;28;20055;-78
2021/03/03 14:36:09;;;;;;;28.45;18.95;;;14.60;53.30;;;;;;6134624;29;20414;-78
2021/03/03 14:39:11;;;;;;;26.58;17.60;;;14.60;53.30;;;;;;6137616;28;20102;-78
2021/03/03 14:42:13;;;;;;;31.55;17.20;;;14.70;53.10;;;;;;6151465;28;20051;-78
2021/03/03 14:45:15;;;;;;;33.03;19.08;;;14.70;53.20;;;;;;6144988;28;20491;-78
2021/03/03 14:48:17;;;;;;;28.58;17.52;;;14.70;52.90;;;;;;6145490;28;20042;-78
2021/03/03 14:51:19;;;;;;;29.15;19.17;;;14.60;53.20;;;;;;6149446;28;20063;-78
2021/03/03 14:54:21;;;;;;;24.25;17.80;;;14.50;53.30;;;;;;6148404;29;20502;-78
2021/03/03 14:57:23;;;;;;;30.75;17.35;;;14.40;53.60;;;;;;6134978;28;20135;-78
2021/03/03 15:00:25;;;;;;;27.35;17.80;;;14.40;53.90;;;;;;6142214;28;20126;-78
2021/03/03 15:03:26;;;;;;;25.05;15.82;;;14.40;54.20;;;;;;6151374;28;20047;-78
2021/03/03 15:06:28;;;;;;;28.98;18.20;;;14.40;54.40;;;;;;6146826;29;20142;-78
2021/03/03 15:09:30;;;;;;;31.40;17.45;;;14.40;54.20;;;;;;6139726;28;20052;-78
2021/03/03 15:12:31;;;;;;;27.77;19.00;;;14.30;54.00;;;;;;6142642;28;20114;-78
2021/03/03 15:15:34;;;;;;;29.13;18.58;;;14.30;54.80;;;;;;6145392;28;20063;-78
2021/03/03 15:18:35;;;;;;;27.17;18.65;;;14.20;55.60;;;;;;6148730;28;20047;-78
2021/03/03 15:21:36;;;;;;;28.48;19.92;;;14.20;55.10;;;;;;6153318;28;20051;-78
2021/03/03 15:24:39;;;;;;;42.33;28.08;;;14.10;55.40;;;;;;6145480;28;20048;-78
2021/03/03 15:27:40;;;;;;;28.38;19.88;;;14.10;55.60;;;;;;6137190;28;20522;-78
2021/03/03 15:30:41;;;;;;;29.00;17.63;;;14.00;55.80;;;;;;6134313;29;20051;-78
2021/03/03 15:33:43;;;;;;;25.35;19.83;;;13.90;56.40;;;;;;6125725;28;20059;-78
2021/03/03 15:36:44;;;;;;;29.67;18.70;;;13.90;56.50;;;;;;6138901;29;20452;-78
2021/03/03 15:39:46;;;;;;;29.20;19.02;;;13.90;57.00;;;;;;6149888;28;20050;-78